createdAt,value
2022-12-31T00:00:00.843Z,46.70
2022-12-31T00:01:33.286Z,40.33
2022-12-31T00:03:10.242Z,40.90
2022-12-31T00:04:42.499Z,38.28
2022-12-31T00:06:20.284Z,43.78
2022-12-31T00:07:52.428Z,43.30
2022-12-31T00:09:24.548Z,45.15
2022-12-31T00:10:56.630Z,44.03
2022-12-31T00:12:28.754Z,45.92
2022-12-31T00:14:01.514Z,41.95
2022-12-31T00:15:33.674Z,37.78
2022-12-31T00:17:05.774Z,39.97
2022-12-31T00:18:38.646Z,36.38
2022-12-31T00:20:10.997Z,34.70
2022-12-31T00:21:43.626Z,37.53
2022-12-31T00:23:15.714Z,39.22
2022-12-31T00:24:47.831Z,43.57
2022-12-31T00:26:22.444Z,40.63
2022-12-31T00:27:55.754Z,37.92
2022-12-31T00:29:27.879Z,38.20
2022-12-31T00:31:10.654Z,44.22
2022-12-31T00:32:43.201Z,45.78
2022-12-31T00:34:15.436Z,40.97
2022-12-31T00:35:47.679Z,48.40
2022-12-31T00:37:19.838Z,48.53
2022-12-31T00:38:53.785Z,43.10
2022-12-31T00:40:26.037Z,40.28
2022-12-31T00:41:58.095Z,42.53
2022-12-31T00:43:30.259Z,42.23
2022-12-31T00:45:02.329Z,39.80
2022-12-31T00:48:06.560Z,41.55
2022-12-31T00:49:38.779Z,42.65
2022-12-31T00:51:14.274Z,40.00
2022-12-31T00:52:46.448Z,40.70
2022-12-31T00:54:18.499Z,44.65
2022-12-31T00:55:50.763Z,37.50
2022-12-31T00:57:22.897Z,35.17
2022-12-31T00:58:55.411Z,36.05
2022-12-31T01:00:27.421Z,40.20
2022-12-31T01:01:59.616Z,39.13
2022-12-31T01:03:31.827Z,36.25
2022-12-31T01:05:04.265Z,35.90
2022-12-31T01:06:36.847Z,40.85
2022-12-31T01:08:08.988Z,39.75
2022-12-31T01:09:41.132Z,45.95
2022-12-31T01:11:19.204Z,41.65
2022-12-31T01:12:51.339Z,37.10
2022-12-31T01:14:23.543Z,36.88
2022-12-31T01:15:55.707Z,40.17
2022-12-31T01:17:28.176Z,41.08
2022-12-31T01:19:02.407Z,43.10
2022-12-31T01:20:39.441Z,35.55
2022-12-31T01:22:11.479Z,39.08
2022-12-31T01:23:43.809Z,29.90
2022-12-31T01:25:15.895Z,35.95
2022-12-31T01:26:48.209Z,39.95
2022-12-31T01:28:20.293Z,36.22
2022-12-31T01:29:52.321Z,37.63
2022-12-31T01:31:25.824Z,35.28
2022-12-31T01:32:58.193Z,39.65
2022-12-31T01:34:30.324Z,38.85
2022-12-31T01:36:23.351Z,39.43
2022-12-31T01:37:57.517Z,40.45
2022-12-31T01:39:29.596Z,35.92
2022-12-31T01:41:02.645Z,35.40
2022-12-31T01:42:34.716Z,37.90
2022-12-31T01:44:12.863Z,33.28
2022-12-31T01:45:49.449Z,35.80
2022-12-31T01:47:47.183Z,35.15
2022-12-31T01:49:38.833Z,40.55
2022-12-31T01:51:11.146Z,41.97
2022-12-31T01:52:48.377Z,30.48
2022-12-31T01:54:22.617Z,35.50
2022-12-31T01:55:59.458Z,33.90
2022-12-31T01:57:32.147Z,36.55
2022-12-31T01:59:08.587Z,39.03
2022-12-31T02:00:40.724Z,36.65
2022-12-31T02:02:15.273Z,32.50
2022-12-31T02:03:47.501Z,37.17
2022-12-31T02:05:42.985Z,36.70
2022-12-31T02:07:15.147Z,31.65
2022-12-31T02:08:48.173Z,30.42
2022-12-31T02:11:52.449Z,31.75
2022-12-31T02:13:24.767Z,32.10
2022-12-31T02:14:56.954Z,32.33
2022-12-31T02:16:35.163Z,30.40
2022-12-31T02:18:24.653Z,32.83
2022-12-31T02:20:27.261Z,29.98
2022-12-31T02:22:05.384Z,30.63
2022-12-31T02:24:12.623Z,31.27
2022-12-31T02:25:56.013Z,31.77
2022-12-31T02:29:45.768Z,29.77
2022-12-31T02:31:30.170Z,31.27
2022-12-31T02:33:19.721Z,33.78
2022-12-31T02:34:58.135Z,30.85
2022-12-31T02:36:34.868Z,31.88
2022-12-31T02:38:13.386Z,35.35
2022-12-31T02:39:46.101Z,33.88
2022-12-31T02:41:38.887Z,36.03
2022-12-31T02:43:10.916Z,30.30
2022-12-31T02:44:43.445Z,30.83
2022-12-31T02:47:13.523Z,30.23
2022-12-31T02:49:27.775Z,33.08
2022-12-31T02:51:05.795Z,32.28
2022-12-31T02:53:02.279Z,32.38
2022-12-31T02:54:49.411Z,29.88
2022-12-31T02:56:21.451Z,29.85
2022-12-31T02:58:17.116Z,30.87
2022-12-31T03:00:19.965Z,30.77
2022-12-31T03:02:16.291Z,31.92
2022-12-31T03:03:48.769Z,32.33
2022-12-31T03:05:25.117Z,34.72
2022-12-31T03:06:57.853Z,33.85
2022-12-31T03:08:30.390Z,33.20
2022-12-31T03:10:02.621Z,34.78
2022-12-31T03:11:53.610Z,30.75
2022-12-31T03:13:25.670Z,34.85
2022-12-31T03:14:58.116Z,32.90
2022-12-31T03:16:30.302Z,32.63
2022-12-31T03:18:06.691Z,32.97
2022-12-31T03:19:59.104Z,32.10
2022-12-31T03:21:50.134Z,34.90
2022-12-31T03:23:50.287Z,34.20
2022-12-31T03:25:35.172Z,35.55
2022-12-31T03:27:07.251Z,36.60
2022-12-31T03:28:47.845Z,34.70
2022-12-31T03:30:21.827Z,41.03
2022-12-31T03:31:53.929Z,36.17
2022-12-31T03:33:30.276Z,40.28
2022-12-31T03:35:02.334Z,36.72
2022-12-31T03:36:34.521Z,33.47
2022-12-31T03:38:07.924Z,35.35
2022-12-31T03:39:40.119Z,36.88
2022-12-31T03:41:12.220Z,31.88
2022-12-31T03:42:44.423Z,35.87
2022-12-31T03:44:16.554Z,35.95
2022-12-31T03:45:53.320Z,36.63
2022-12-31T03:47:25.514Z,36.95
2022-12-31T03:48:57.542Z,33.05
2022-12-31T03:50:29.816Z,40.33
2022-12-31T03:52:03.608Z,39.03
2022-12-31T03:53:36.163Z,38.42
2022-12-31T03:55:09.878Z,39.30
2022-12-31T03:56:42.038Z,42.28
2022-12-31T03:58:14.108Z,44.90
2022-12-31T03:59:47.462Z,35.95
2022-12-31T04:01:19.750Z,37.57
2022-12-31T04:02:52.369Z,38.10
2022-12-31T04:04:24.448Z,45.03
2022-12-31T04:05:57.047Z,44.45
2022-12-31T04:07:29.116Z,45.78
2022-12-31T04:09:01.263Z,44.65
2022-12-31T04:10:33.333Z,51.67
2022-12-31T04:12:05.820Z,43.72
2022-12-31T04:13:37.968Z,51.60
2022-12-31T04:15:15.491Z,47.53
2022-12-31T04:16:47.629Z,36.10
2022-12-31T04:18:19.779Z,42.85
2022-12-31T04:19:51.925Z,47.33
2022-12-31T04:21:24.098Z,68.32
2022-12-31T04:22:56.171Z,62.97
2022-12-31T04:24:28.396Z,58.63
2022-12-31T04:26:00.452Z,49.70
2022-12-31T04:27:32.584Z,83.35
2022-12-31T04:29:05.090Z,45.87
2022-12-31T04:30:37.186Z,46.05
2022-12-31T04:32:09.867Z,44.05
2022-12-31T04:33:42.050Z,69.05
2022-12-31T04:35:14.199Z,57.45
2022-12-31T04:36:46.376Z,52.13
2022-12-31T04:38:18.417Z,53.97
2022-12-31T04:39:50.536Z,47.30
2022-12-31T04:41:23.965Z,50.20
2022-12-31T04:42:56.175Z,62.10
2022-12-31T04:44:28.324Z,65.45
2022-12-31T04:46:00.466Z,80.13
2022-12-31T04:47:32.595Z,67.40
2022-12-31T04:49:05.034Z,69.03
2022-12-31T04:50:37.100Z,54.80
2022-12-31T04:52:09.280Z,68.00
2022-12-31T04:53:42.060Z,83.43
2022-12-31T04:55:14.169Z,59.60
2022-12-31T04:56:46.209Z,76.57
2022-12-31T04:58:18.872Z,57.35
2022-12-31T04:59:50.930Z,61.55
2022-12-31T05:01:23.649Z,78.45
2022-12-31T05:02:55.831Z,63.60
2022-12-31T05:04:28.084Z,54.70
2022-12-31T05:06:05.674Z,51.92
2022-12-31T05:07:37.787Z,46.45
2022-12-31T05:09:09.864Z,69.57
2022-12-31T05:10:47.350Z,68.23
2022-12-31T05:12:21.980Z,54.47
2022-12-31T05:13:54.069Z,63.10
2022-12-31T05:15:26.154Z,66.20
2022-12-31T05:16:59.373Z,49.70
2022-12-31T05:18:33.459Z,56.05
2022-12-31T05:20:06.134Z,99.97
2022-12-31T05:21:38.379Z,76.70
2022-12-31T05:23:10.942Z,95.05
2022-12-31T05:24:42.948Z,64.45
2022-12-31T05:26:15.355Z,82.45
2022-12-31T05:27:47.560Z,79.20
2022-12-31T05:29:19.691Z,51.40
2022-12-31T05:30:52.551Z,75.00
2022-12-31T05:33:56.932Z,63.78
2022-12-31T05:35:29.143Z,96.03
2022-12-31T05:37:01.187Z,59.00
2022-12-31T05:38:33.682Z,92.70
2022-12-31T05:40:06.842Z,62.63
2022-12-31T05:41:38.919Z,62.72
2022-12-31T05:43:11.004Z,69.00
2022-12-31T05:44:43.188Z,113.05
2022-12-31T05:46:16.262Z,79.40
2022-12-31T05:47:48.593Z,80.90
2022-12-31T05:49:24.048Z,76.80
2022-12-31T05:50:56.260Z,84.88
2022-12-31T05:52:28.428Z,50.13
2022-12-31T05:54:00.703Z,60.78
2022-12-31T05:55:32.771Z,50.37
2022-12-31T05:57:05.478Z,80.50
2022-12-31T05:58:37.606Z,84.75
2022-12-31T06:00:10.678Z,94.63
2022-12-31T06:01:45.691Z,81.80
2022-12-31T06:03:17.879Z,59.87
2022-12-31T06:04:50.577Z,102.03
2022-12-31T06:06:22.737Z,59.60
2022-12-31T06:07:54.798Z,84.93
2022-12-31T06:09:27.752Z,68.47
2022-12-31T06:12:31.795Z,43.92
2022-12-31T06:14:03.926Z,66.38
2022-12-31T06:15:40.068Z,78.18
2022-12-31T06:17:12.362Z,48.50
2022-12-31T06:18:47.517Z,45.80
2022-12-31T06:20:19.879Z,56.70
2022-12-31T06:21:51.987Z,54.38
2022-12-31T06:23:24.101Z,63.72
2022-12-31T06:24:56.235Z,59.15
2022-12-31T06:26:28.735Z,55.88
2022-12-31T06:28:00.814Z,82.68
2022-12-31T06:29:32.895Z,73.80
2022-12-31T06:31:08.048Z,65.22
2022-12-31T06:32:40.812Z,95.97
2022-12-31T06:34:13.012Z,56.22
2022-12-31T06:35:45.068Z,69.57
2022-12-31T06:37:17.133Z,73.17
2022-12-31T06:38:49.361Z,70.50
2022-12-31T06:40:21.508Z,57.42
2022-12-31T06:41:54.078Z,75.05
2022-12-31T06:43:26.172Z,56.65
2022-12-31T06:44:59.045Z,84.70
2022-12-31T06:46:31.249Z,61.55
2022-12-31T06:48:03.459Z,71.45
2022-12-31T06:49:35.560Z,60.45
2022-12-31T06:51:16.563Z,74.10
2022-12-31T06:52:49.283Z,66.97
2022-12-31T06:54:21.627Z,89.30
2022-12-31T06:55:54.296Z,63.38
2022-12-31T06:57:27.142Z,44.63
2022-12-31T06:59:00.377Z,65.55
2022-12-31T07:00:32.700Z,66.03
2022-12-31T07:02:48.205Z,51.40
2022-12-31T07:04:59.091Z,36.90
2022-12-31T07:06:35.774Z,45.20
2022-12-31T07:08:20.056Z,43.75
2022-12-31T07:10:30.823Z,41.00
2022-12-31T07:12:25.011Z,44.60
2022-12-31T07:14:08.370Z,44.10
2022-12-31T07:16:14.533Z,57.50
2022-12-31T07:17:58.653Z,48.15
2022-12-31T07:19:57.645Z,47.95
2022-12-31T07:21:39.022Z,54.33
2022-12-31T07:23:11.432Z,65.53
2022-12-31T07:24:44.488Z,54.03
2022-12-31T07:28:17.691Z,49.42
2022-12-31T07:30:02.044Z,47.05
2022-12-31T07:32:16.514Z,44.20
2022-12-31T07:33:48.572Z,57.92
2022-12-31T07:35:44.827Z,60.80
2022-12-31T07:37:46.366Z,49.78
2022-12-31T07:39:30.082Z,40.70
2022-12-31T07:41:16.946Z,58.38
2022-12-31T07:42:51.644Z,86.38
2022-12-31T07:44:47.343Z,98.70
2022-12-31T07:46:35.824Z,58.42
2022-12-31T07:48:26.725Z,73.75
2022-12-31T07:49:59.154Z,77.40
2022-12-31T07:51:31.451Z,66.32
2022-12-31T07:53:03.743Z,57.83
2022-12-31T07:54:36.129Z,49.65
2022-12-31T07:56:09.865Z,48.93
2022-12-31T07:58:07.353Z,55.95
2022-12-31T08:00:04.297Z,50.10
2022-12-31T08:01:54.221Z,62.58
2022-12-31T08:03:54.608Z,62.85
2022-12-31T08:05:29.514Z,50.05
2022-12-31T08:07:15.233Z,51.75
2022-12-31T08:08:50.287Z,43.33
2022-12-31T08:10:37.906Z,54.70
2022-12-31T08:12:10.227Z,52.50
2022-12-31T08:13:42.872Z,50.97
2022-12-31T08:15:17.338Z,51.20
2022-12-31T08:16:49.978Z,50.95
2022-12-31T08:18:22.298Z,48.60
2022-12-31T08:19:54.706Z,53.28
2022-12-31T08:21:57.215Z,40.50
2022-12-31T08:23:40.905Z,45.00
2022-12-31T08:25:15.704Z,44.47
2022-12-31T08:26:57.275Z,44.53
2022-12-31T08:29:01.653Z,44.92
2022-12-31T08:30:57.250Z,38.92
2022-12-31T08:32:36.991Z,42.70
2022-12-31T08:34:23.834Z,44.08
2022-12-31T08:36:23.148Z,46.25
2022-12-31T08:38:04.328Z,43.83
2022-12-31T08:39:41.402Z,42.25
2022-12-31T08:41:42.441Z,44.65
2022-12-31T08:43:40.479Z,49.53
2022-12-31T08:45:33.409Z,46.78
2022-12-31T08:47:27.079Z,48.08
2022-12-31T08:48:59.430Z,44.10
2022-12-31T08:50:31.912Z,46.47
2022-12-31T08:52:04.445Z,41.55
2022-12-31T08:53:36.950Z,42.92
2022-12-31T08:55:17.432Z,40.95
2022-12-31T08:56:56.833Z,40.45
2022-12-31T08:58:43.937Z,36.70
2022-12-31T09:00:18.911Z,38.25
2022-12-31T09:02:24.563Z,37.08
2022-12-31T09:04:18.299Z,34.10
2022-12-31T09:06:02.513Z,34.38
2022-12-31T09:07:38.663Z,34.15
2022-12-31T09:09:15.955Z,36.20
2022-12-31T09:11:00.744Z,26.25
2022-12-31T09:12:50.058Z,25.40
2022-12-31T09:14:42.855Z,25.67
2022-12-31T09:16:27.680Z,29.13
2022-12-31T09:18:00.240Z,31.90
2022-12-31T09:19:32.342Z,26.70
2022-12-31T09:21:04.771Z,25.17
2022-12-31T09:22:37.088Z,31.52
2022-12-31T09:24:12.082Z,26.38
2022-12-31T09:25:57.640Z,28.92
2022-12-31T09:27:58.016Z,26.30
2022-12-31T09:29:57.535Z,24.75
2022-12-31T09:31:48.323Z,27.55
2022-12-31T09:33:50.195Z,30.13
2022-12-31T09:35:39.528Z,26.80
2022-12-31T09:37:48.777Z,26.77
2022-12-31T09:39:23.867Z,27.88
2022-12-31T09:41:28.469Z,28.92
2022-12-31T09:43:26.329Z,29.52
2022-12-31T09:45:19.421Z,31.23
2022-12-31T09:47:03.572Z,30.15
2022-12-31T09:49:20.807Z,26.92
2022-12-31T09:51:16.321Z,30.05
2022-12-31T09:53:34.368Z,24.80
2022-12-31T09:55:12.335Z,26.20
2022-12-31T09:56:57.133Z,25.55
2022-12-31T09:58:36.962Z,23.65
2022-12-31T10:00:11.950Z,25.10
2022-12-31T10:02:40.831Z,21.95
2022-12-31T10:04:43.860Z,23.05
2022-12-31T10:06:27.101Z,21.33
2022-12-31T10:10:01.638Z,22.17
2022-12-31T10:12:11.593Z,25.05
2022-12-31T10:14:08.251Z,21.20
2022-12-31T10:16:08.054Z,21.23
2022-12-31T10:17:49.020Z,23.10
2022-12-31T10:19:42.475Z,23.63
2022-12-31T10:21:36.028Z,23.27
2022-12-31T10:23:26.057Z,20.90
2022-12-31T10:25:07.313Z,22.58
2022-12-31T10:26:53.426Z,22.67
2022-12-31T10:28:45.576Z,25.48
2022-12-31T10:30:20.636Z,29.08
2022-12-31T10:31:58.493Z,26.00
2022-12-31T10:34:05.641Z,25.73
2022-12-31T10:35:43.601Z,32.80
2022-12-31T10:37:23.655Z,27.02
2022-12-31T10:39:12.826Z,28.25
2022-12-31T10:41:27.678Z,24.27
2022-12-31T10:43:44.929Z,26.70
2022-12-31T10:45:20.049Z,24.48
2022-12-31T10:47:29.757Z,25.63
2022-12-31T10:49:07.611Z,28.08
2022-12-31T10:51:11.855Z,23.98
2022-12-31T10:54:33.835Z,23.70
2022-12-31T10:56:11.818Z,25.75
2022-12-31T10:57:51.763Z,25.15
2022-12-31T10:59:41.937Z,24.73
2022-12-31T11:01:14.417Z,25.52
2022-12-31T11:05:12.947Z,27.23
2022-12-31T11:07:19.434Z,25.90
2022-12-31T11:09:25.545Z,23.55
2022-12-31T11:11:36.116Z,24.50
2022-12-31T11:13:38.989Z,23.73
2022-12-31T11:15:32.155Z,24.63
2022-12-31T11:17:22.300Z,24.95
2022-12-31T11:19:21.625Z,27.80
2022-12-31T11:21:28.419Z,27.15
2022-12-31T11:23:37.399Z,26.02
2022-12-31T11:25:12.950Z,24.55
2022-12-31T11:27:18.897Z,23.27
2022-12-31T11:29:03.821Z,25.90
2022-12-31T11:30:49.373Z,25.33
2022-12-31T11:32:40.008Z,22.70
2022-12-31T11:34:24.356Z,26.95
2022-12-31T11:36:14.897Z,26.90
2022-12-31T11:38:10.583Z,26.58
2022-12-31T11:40:01.288Z,27.45
2022-12-31T11:42:18.543Z,24.13
2022-12-31T11:44:16.812Z,28.20
2022-12-31T11:46:10.201Z,27.33
2022-12-31T11:50:13.648Z,26.50
2022-12-31T11:52:21.452Z,27.50
2022-12-31T11:54:30.166Z,26.95
2022-12-31T11:56:20.642Z,27.15
2022-12-31T11:57:53.474Z,29.98
2022-12-31T11:59:25.639Z,27.85
2022-12-31T12:01:04.786Z,29.75
2022-12-31T12:02:45.759Z,30.10
2022-12-31T12:04:18.089Z,34.67
2022-12-31T12:05:50.486Z,32.47
2022-12-31T12:07:24.169Z,27.88
2022-12-31T12:09:01.678Z,26.85
2022-12-31T12:10:44.228Z,26.02
2022-12-31T12:12:16.529Z,24.70
2022-12-31T12:13:48.727Z,25.52
2022-12-31T12:15:42.840Z,25.42
2022-12-31T12:17:22.356Z,23.40
2022-12-31T12:19:16.373Z,22.30
2022-12-31T12:20:48.618Z,22.67
2022-12-31T12:22:28.435Z,25.33
2022-12-31T12:24:17.461Z,24.33
2022-12-31T12:25:50.334Z,24.85
2022-12-31T12:27:25.038Z,25.55
2022-12-31T12:29:01.504Z,24.63
2022-12-31T12:30:41.413Z,25.38
2022-12-31T12:32:17.515Z,21.35
2022-12-31T12:33:52.142Z,25.20
2022-12-31T12:35:35.919Z,25.15
2022-12-31T12:39:04.962Z,23.60
2022-12-31T12:40:37.040Z,20.52
2022-12-31T12:42:14.590Z,22.83
2022-12-31T12:43:46.840Z,24.92
2022-12-31T12:45:25.428Z,23.75
2022-12-31T12:46:58.745Z,23.75
2022-12-31T12:48:41.923Z,23.98
2022-12-31T12:50:17.822Z,23.40
2022-12-31T12:52:14.327Z,24.08
2022-12-31T12:54:40.202Z,25.50
2022-12-31T12:56:35.738Z,25.50
2022-12-31T12:58:26.467Z,22.55
2022-12-31T13:00:23.298Z,22.90
2022-12-31T13:02:01.099Z,23.45
2022-12-31T13:04:32.573Z,27.35
2022-12-31T13:06:27.102Z,27.05
2022-12-31T13:08:09.371Z,25.48
2022-12-31T13:09:59.227Z,22.38
2022-12-31T13:12:07.328Z,20.48
2022-12-31T13:13:45.948Z,19.30
2022-12-31T13:15:37.876Z,23.25
2022-12-31T13:17:12.667Z,22.52
2022-12-31T13:19:05.225Z,24.88
2022-12-31T13:21:03.673Z,21.92
2022-12-31T13:22:43.745Z,20.65
2022-12-31T13:24:29.500Z,24.52
2022-12-31T13:26:07.817Z,22.48
2022-12-31T13:27:44.650Z,24.02
2022-12-31T13:29:24.123Z,20.35
2022-12-31T13:31:06.518Z,25.67
2022-12-31T13:32:42.651Z,21.85
2022-12-31T13:34:26.008Z,23.13
2022-12-31T13:36:05.582Z,23.85
2022-12-31T13:37:41.320Z,24.95
2022-12-31T13:39:25.024Z,21.45
2022-12-31T13:41:14.951Z,23.58
2022-12-31T13:43:06.132Z,24.50
2022-12-31T13:44:46.157Z,25.70
2022-12-31T13:46:24.121Z,22.52
2022-12-31T13:48:05.616Z,21.20
2022-12-31T13:49:46.452Z,24.42
2022-12-31T13:51:27.869Z,22.92
2022-12-31T13:53:14.058Z,25.70
2022-12-31T13:55:01.680Z,23.27
2022-12-31T13:56:39.040Z,21.98
2022-12-31T13:58:31.620Z,22.83
2022-12-31T14:00:07.135Z,24.02
2022-12-31T14:02:26.666Z,23.60
2022-12-31T14:04:42.582Z,21.85
2022-12-31T14:06:19.200Z,26.35
2022-12-31T14:07:54.709Z,19.33
2022-12-31T14:09:30.674Z,24.65
2022-12-31T14:11:28.074Z,24.08
2022-12-31T14:13:15.826Z,23.55
2022-12-31T14:15:52.296Z,20.55
2022-12-31T14:17:24.503Z,21.52
2022-12-31T14:19:08.084Z,21.23
2022-12-31T14:20:52.640Z,20.58
2022-12-31T14:22:43.049Z,20.33
2022-12-31T14:24:28.897Z,22.05
2022-12-31T14:26:19.763Z,22.33
2022-12-31T14:27:54.812Z,17.73
2022-12-31T14:29:48.274Z,22.63
2022-12-31T14:31:42.462Z,20.73
2022-12-31T14:33:27.635Z,21.88
2022-12-31T14:35:05.888Z,19.52
2022-12-31T14:37:07.764Z,22.77
2022-12-31T14:38:47.576Z,20.42
2022-12-31T14:40:32.834Z,20.65
2022-12-31T14:42:10.671Z,19.08
2022-12-31T14:44:20.309Z,23.83
2022-12-31T14:46:01.390Z,19.55
2022-12-31T14:47:43.718Z,21.45
2022-12-31T14:49:28.040Z,24.90
2022-12-31T14:51:02.490Z,20.58
2022-12-31T14:52:48.927Z,21.50
2022-12-31T14:54:56.927Z,21.30
2022-12-31T14:56:45.402Z,19.75
2022-12-31T14:58:37.203Z,18.77
2022-12-31T15:00:21.844Z,20.92
2022-12-31T15:01:55.237Z,16.42
2022-12-31T15:03:45.095Z,20.02
2022-12-31T15:05:21.566Z,18.60
2022-12-31T15:07:22.008Z,19.90
2022-12-31T15:09:31.174Z,23.05
2022-12-31T15:11:12.175Z,19.27
2022-12-31T15:13:07.149Z,19.00
2022-12-31T15:14:54.985Z,18.65
2022-12-31T15:16:41.279Z,21.00
2022-12-31T15:18:22.283Z,18.73
2022-12-31T15:20:17.676Z,19.08
2022-12-31T15:21:58.826Z,21.27
2022-12-31T15:23:36.941Z,18.67
2022-12-31T15:25:27.550Z,21.10
2022-12-31T15:27:03.177Z,21.02
2022-12-31T15:28:41.634Z,21.05
2022-12-31T15:30:28.591Z,21.50
2022-12-31T15:32:03.892Z,21.10
2022-12-31T15:33:41.646Z,19.63
2022-12-31T15:35:22.740Z,16.92
2022-12-31T15:36:57.996Z,20.10
2022-12-31T15:38:37.105Z,20.98
2022-12-31T15:40:15.368Z,18.38
2022-12-31T15:42:27.593Z,18.98
2022-12-31T15:43:52.883Z,20.35
2022-12-31T15:45:32.164Z,21.30
2022-12-31T15:47:17.752Z,19.95
2022-12-31T15:49:03.709Z,17.98
2022-12-31T15:50:39.552Z,18.70
2022-12-31T15:52:38.213Z,20.73
2022-12-31T15:54:20.531Z,18.42
2022-12-31T15:55:54.999Z,21.92
2022-12-31T15:57:54.561Z,19.90
2022-12-31T15:59:27.352Z,20.85
2022-12-31T16:01:14.889Z,19.67
2022-12-31T16:02:49.014Z,20.75
2022-12-31T16:04:24.639Z,17.77
2022-12-31T16:06:02.765Z,19.60
2022-12-31T16:07:35.671Z,19.05
2022-12-31T16:12:33.571Z,19.40
2022-12-31T16:14:07.610Z,18.63
2022-12-31T16:15:40.538Z,18.90
2022-12-31T16:19:00.455Z,18.02
2022-12-31T16:20:34.087Z,18.30
2022-12-31T16:22:14.999Z,19.63
2022-12-31T16:23:51.857Z,19.80
2022-12-31T16:25:33.568Z,16.20
2022-12-31T16:27:09.273Z,16.75
2022-12-31T16:28:43.280Z,19.70
2022-12-31T16:30:25.240Z,17.50
2022-12-31T16:32:02.200Z,18.17
2022-12-31T16:33:34.513Z,19.38
2022-12-31T16:35:32.402Z,19.23
2022-12-31T16:37:13.764Z,18.20
2022-12-31T16:38:45.930Z,21.02
2022-12-31T16:40:21.420Z,19.83
2022-12-31T16:42:09.108Z,19.52
2022-12-31T16:43:43.349Z,19.77
2022-12-31T16:45:25.151Z,19.63
2022-12-31T16:46:59.682Z,19.38
2022-12-31T16:48:31.808Z,20.58
2022-12-31T16:50:16.600Z,21.35
2022-12-31T16:51:49.701Z,21.63
2022-12-31T16:53:26.202Z,20.25
2022-12-31T16:54:59.122Z,22.00
2022-12-31T16:58:21.528Z,22.38
2022-12-31T17:00:02.928Z,21.35
2022-12-31T17:01:37.440Z,22.90
2022-12-31T17:03:22.357Z,17.70
2022-12-31T17:04:56.487Z,19.17
2022-12-31T17:06:32.186Z,23.65
2022-12-31T17:08:29.335Z,23.77
2022-12-31T17:10:26.010Z,26.35
2022-12-31T17:12:12.325Z,25.42
2022-12-31T17:13:53.811Z,26.67
2022-12-31T17:15:42.495Z,25.05
2022-12-31T17:17:22.973Z,24.60
2022-12-31T17:18:55.172Z,23.15
2022-12-31T17:20:32.809Z,22.65
2022-12-31T17:22:10.360Z,22.55
2022-12-31T17:23:53.228Z,24.48
2022-12-31T17:25:28.821Z,21.23
2022-12-31T17:27:06.297Z,21.52
2022-12-31T17:28:50.077Z,23.05
2022-12-31T17:30:27.745Z,24.30
2022-12-31T17:32:06.756Z,27.88
2022-12-31T17:33:38.922Z,27.58
2022-12-31T17:35:44.017Z,24.77
2022-12-31T17:37:18.813Z,23.27
2022-12-31T17:38:51.315Z,21.42
2022-12-31T17:40:53.380Z,22.73
2022-12-31T17:42:34.712Z,23.92
2022-12-31T17:44:06.774Z,29.23
2022-12-31T17:45:39.737Z,27.35
2022-12-31T17:47:16.104Z,21.30
2022-12-31T17:48:54.221Z,23.52
2022-12-31T17:50:27.916Z,23.92
2022-12-31T17:52:00.181Z,25.95
2022-12-31T17:53:32.443Z,24.85
2022-12-31T17:55:04.932Z,23.73
2022-12-31T17:56:37.046Z,22.50
2022-12-31T17:58:18.839Z,20.90
2022-12-31T17:59:50.960Z,23.38
2022-12-31T18:01:23.804Z,23.10
2022-12-31T18:02:56.107Z,21.10
2022-12-31T18:04:28.603Z,25.70
2022-12-31T18:06:00.826Z,24.90
2022-12-31T18:07:33.229Z,23.38
2022-12-31T18:09:05.279Z,23.48
2022-12-31T18:10:39.770Z,20.98
2022-12-31T18:12:14.420Z,23.00
2022-12-31T18:13:46.885Z,22.45
2022-12-31T18:15:24.207Z,22.85
2022-12-31T18:16:56.302Z,22.77
2022-12-31T18:18:30.696Z,21.45
2022-12-31T18:20:05.363Z,23.02
2022-12-31T18:21:38.372Z,21.02
2022-12-31T18:23:22.836Z,22.40
2022-12-31T18:24:54.991Z,24.10
2022-12-31T18:26:27.671Z,23.13
2022-12-31T18:27:59.775Z,24.85
2022-12-31T18:29:31.937Z,27.75
2022-12-31T18:31:04.177Z,28.38
2022-12-31T18:32:37.560Z,29.10
2022-12-31T18:34:12.860Z,27.30
2022-12-31T18:37:37.128Z,21.25
2022-12-31T18:39:09.548Z,25.83
2022-12-31T18:40:46.549Z,23.17
2022-12-31T18:42:20.302Z,22.20
2022-12-31T18:43:52.558Z,26.95
2022-12-31T18:45:25.880Z,25.75
2022-12-31T18:46:58.301Z,29.00
2022-12-31T18:48:30.429Z,26.55
2022-12-31T18:50:02.469Z,26.43
2022-12-31T18:51:36.074Z,26.15
2022-12-31T18:53:13.759Z,26.88
2022-12-31T18:54:46.462Z,28.75
2022-12-31T18:56:20.231Z,29.90
2022-12-31T18:57:52.582Z,27.92
2022-12-31T18:59:26.702Z,26.23
2022-12-31T19:00:58.952Z,26.63
2022-12-31T19:02:31.384Z,24.52
2022-12-31T19:04:10.931Z,26.27
2022-12-31T19:05:43.419Z,25.77
2022-12-31T19:07:15.582Z,30.10
2022-12-31T19:08:47.662Z,28.05
2022-12-31T19:10:20.213Z,26.95
2022-12-31T19:11:52.339Z,29.77
2022-12-31T19:13:24.569Z,25.60
2022-12-31T19:14:56.633Z,21.35
2022-12-31T19:16:29.024Z,25.30
2022-12-31T19:18:02.575Z,26.95
2022-12-31T19:19:35.105Z,30.10
2022-12-31T19:21:14.366Z,27.50
2022-12-31T19:22:46.573Z,26.02
2022-12-31T19:24:21.540Z,27.88
2022-12-31T19:25:53.702Z,26.02
2022-12-31T19:27:26.909Z,26.73
2022-12-31T19:28:59.015Z,25.77
2022-12-31T19:30:33.449Z,27.10
2022-12-31T19:32:05.974Z,29.42
2022-12-31T19:33:38.125Z,24.58
2022-12-31T19:35:13.408Z,24.95
2022-12-31T19:36:46.413Z,30.02
2022-12-31T19:38:24.414Z,29.80
2022-12-31T19:39:56.542Z,26.83
2022-12-31T19:41:28.653Z,28.40
2022-12-31T19:43:00.799Z,27.17
2022-12-31T19:44:33.013Z,32.42
2022-12-31T19:46:05.328Z,30.83
2022-12-31T19:47:37.527Z,28.30
2022-12-31T19:49:14.176Z,30.42
2022-12-31T19:50:49.525Z,28.55
2022-12-31T19:52:21.651Z,28.55
2022-12-31T19:53:53.852Z,26.67
2022-12-31T19:55:26.423Z,28.93
2022-12-31T19:56:58.556Z,27.00
2022-12-31T19:58:30.684Z,25.93
2022-12-31T20:00:05.404Z,30.42
2022-12-31T20:01:43.945Z,27.33
2022-12-31T20:03:16.435Z,30.70
2022-12-31T20:04:48.659Z,28.17
2022-12-31T20:06:20.840Z,26.20
2022-12-31T20:07:53.021Z,27.60
2022-12-31T20:09:25.134Z,27.25
2022-12-31T20:10:59.014Z,28.23
2022-12-31T20:12:31.441Z,28.38
2022-12-31T20:14:03.661Z,30.60
2022-12-31T20:15:39.219Z,30.80
2022-12-31T20:17:11.478Z,30.58
2022-12-31T20:18:45.180Z,29.58
2022-12-31T20:20:17.370Z,26.42
2022-12-31T20:21:49.582Z,27.38
2022-12-31T20:23:21.655Z,27.90
2022-12-31T20:24:53.835Z,26.03
2022-12-31T20:26:26.071Z,24.83
2022-12-31T20:27:58.211Z,25.67
2022-12-31T20:29:30.403Z,28.70
2022-12-31T20:31:16.922Z,26.23
2022-12-31T20:32:52.167Z,24.08
2022-12-31T20:34:24.406Z,26.58
2022-12-31T20:36:01.996Z,29.02
2022-12-31T20:37:34.157Z,24.58
2022-12-31T20:39:07.115Z,28.90
2022-12-31T20:40:46.187Z,23.38
2022-12-31T20:42:18.930Z,25.88
2022-12-31T20:43:51.482Z,25.77
2022-12-31T20:45:24.885Z,26.67
2022-12-31T20:46:57.258Z,29.05
2022-12-31T20:48:31.336Z,28.38
2022-12-31T20:50:12.471Z,25.17
2022-12-31T20:51:50.333Z,25.73
2022-12-31T20:53:24.625Z,28.73
2022-12-31T20:54:56.671Z,26.55
2022-12-31T20:56:31.671Z,23.98
2022-12-31T20:58:05.088Z,29.40
2022-12-31T20:59:37.425Z,25.77
2022-12-31T21:01:11.095Z,25.80
2022-12-31T21:02:46.670Z,22.60
2022-12-31T21:04:24.429Z,22.95
2022-12-31T21:05:56.838Z,24.02
2022-12-31T21:07:29.052Z,26.17
2022-12-31T21:09:03.215Z,26.55
2022-12-31T21:10:35.806Z,25.17
2022-12-31T21:12:28.830Z,25.90
2022-12-31T21:14:01.605Z,25.27
2022-12-31T21:15:33.757Z,23.48
2022-12-31T21:17:05.910Z,30.90
2022-12-31T21:18:38.052Z,28.02
2022-12-31T21:20:11.001Z,25.90
2022-12-31T21:21:43.215Z,25.85
2022-12-31T21:23:16.592Z,26.15
2022-12-31T21:24:48.753Z,29.25
2022-12-31T21:26:20.878Z,27.77
2022-12-31T21:27:53.035Z,29.23
2022-12-31T21:29:26.244Z,29.67
2022-12-31T21:31:03.277Z,30.60
2022-12-31T21:32:35.483Z,32.90
2022-12-31T21:34:09.486Z,26.67
2022-12-31T21:35:48.348Z,27.15
2022-12-31T21:37:26.586Z,24.05
2022-12-31T21:39:18.622Z,29.67
2022-12-31T21:40:50.715Z,24.43
2022-12-31T21:42:22.919Z,24.80
2022-12-31T21:43:55.227Z,25.65
2022-12-31T21:45:27.285Z,25.67
2022-12-31T21:47:41.310Z,34.25
2022-12-31T21:49:13.799Z,26.60
2022-12-31T21:51:04.025Z,29.30
2022-12-31T21:52:36.183Z,32.90
2022-12-31T21:54:28.309Z,33.97